Time;durP1;ratioP1;P1;durP2;ratioP2;P2;SDS_P1;SDS_P2;PMS_P1;PMS_P2;Temp;Humidity;BMP_temperature;BMP_pressure;BME280_temperature;BME280_humidity;BME280_pressure;Samples;Min_cycle;Max_cycle;Signal;HPM_P1;HPM_P2
2021/03/14 00:00:58;;;;;;;3.80;2.40;;;;;19.90;98959.00;;;;2076963;28;20222;-65
2021/03/14 00:01:58;;;;;;;3.33;2.30;;;;;19.90;98961.00;;;;2062530;28;20347;-65
2021/03/14 00:02:59;;;;;;;3.70;2.67;;;;;19.90;98960.00;;;;2062315;28;20212;-64
2021/03/14 00:03:59;;;;;;;2.60;2.03;;;;;19.90;98970.00;;;;2069927;28;20261;-64
2021/03/14 00:05:00;;;;;;;4.20;2.43;;;;;19.90;98968.00;;;;2070039;28;20261;-64
2021/03/14 00:06:00;;;;;;;3.43;2.43;;;;;19.90;98971.00;;;;2087286;28;20220;-65
2021/03/14 00:07:01;;;;;;;4.43;2.70;;;;;19.80;98974.00;;;;2086640;28;20213;-64
2021/03/14 00:08:02;;;;;;;3.80;2.17;;;;;19.90;98977.00;;;;2087025;28;20224;-65
2021/03/14 00:09:03;;;;;;;3.70;2.10;;;;;19.80;98971.00;;;;2086818;28;20547;-65
2021/03/14 00:10:04;;;;;;;2.83;2.03;;;;;19.80;98976.00;;;;2078549;28;20271;-64
2021/03/14 00:11:06;;;;;;;3.15;1.98;;;;;19.80;98979.00;;;;2070179;28;20225;-64
2021/03/14 00:12:07;;;;;;;3.28;2.00;;;;;19.80;98981.00;;;;2069146;28;20713;-65
2021/03/14 00:13:07;;;;;;;3.20;2.60;;;;;19.80;98983.00;;;;2072014;28;20294;-65
2021/03/14 00:14:08;;;;;;;3.30;2.27;;;;;19.80;98982.00;;;;2079218;28;20225;-65
2021/03/14 00:15:08;;;;;;;3.10;2.60;;;;;19.80;98991.00;;;;2079178;28;20241;-65
2021/03/14 00:16:09;;;;;;;3.20;2.07;;;;;19.80;99003.00;;;;2078992;28;20221;-64
2021/03/14 00:17:09;;;;;;;4.17;2.03;;;;;19.80;98996.00;;;;2069781;28;20728;-64
2021/03/14 00:18:10;;;;;;;2.93;2.40;;;;;19.80;98990.00;;;;2070071;28;20217;-65
2021/03/14 00:19:10;;;;;;;2.47;2.00;;;;;19.80;98995.00;;;;2070382;28;20211;-64
2021/03/14 00:20:11;;;;;;;3.73;2.07;;;;;19.80;98992.00;;;;2070519;28;20261;-64
2021/03/14 00:21:11;;;;;;;3.20;2.00;;;;;19.80;98998.00;;;;2078744;28;20214;-65
2021/03/14 00:22:11;;;;;;;3.93;1.80;;;;;19.70;99010.00;;;;2070347;28;20233;-64
2021/03/14 00:23:12;;;;;;;3.17;2.10;;;;;19.70;99003.00;;;;2070586;28;20241;-65
2021/03/14 00:24:12;;;;;;;2.83;2.10;;;;;19.70;99006.00;;;;2079391;28;20707;-65
2021/03/14 00:25:13;;;;;;;2.60;1.83;;;;;19.70;98996.00;;;;2070539;28;20215;-65
2021/03/14 00:26:14;;;;;;;3.20;2.50;;;;;19.70;99012.00;;;;2070527;28;20219;-65
2021/03/14 00:27:14;;;;;;;4.23;2.63;;;;;19.70;99008.00;;;;2069849;28;20229;-64
2021/03/14 00:28:16;;;;;;;3.47;2.30;;;;;19.70;99017.00;;;;2079330;28;20469;-65
2021/03/14 00:29:17;;;;;;;2.65;1.95;;;;;19.70;99023.00;;;;2069868;28;20264;-65
2021/03/14 00:30:18;;;;;;;2.57;2.03;;;;;19.70;99019.00;;;;2070923;28;20289;-64
2021/03/14 00:31:18;;;;;;;3.40;2.07;;;;;19.70;99014.00;;;;2079249;28;20213;-64
2021/03/14 00:32:18;;;;;;;2.90;2.13;;;;;19.70;99025.00;;;;2079270;28;20460;-64
2021/03/14 00:33:19;;;;;;;3.23;1.90;;;;;19.60;99019.00;;;;2080873;28;20229;-65
2021/03/14 00:34:19;;;;;;;3.30;2.33;;;;;19.70;99020.00;;;;2080920;28;20213;-65
2021/03/14 00:35:20;;;;;;;2.43;1.87;;;;;19.70;99023.00;;;;2080870;28;20214;-65
2021/03/14 00:36:20;;;;;;;4.23;2.27;;;;;19.70;99029.00;;;;2080852;28;20747;-65
2021/03/14 00:37:21;;;;;;;2.23;1.87;;;;;19.70;99026.00;;;;2080297;28;20220;-64
2021/03/14 00:38:21;;;;;;;2.37;2.00;;;;;19.60;99036.00;;;;2081092;28;20272;-65
2021/03/14 00:39:21;;;;;;;1.93;1.63;;;;;19.60;99040.00;;;;2071926;28;20266;-64
2021/03/14 00:40:23;;;;;;;2.30;1.93;;;;;19.70;99042.00;;;;2073892;28;20917;-65
2021/03/14 00:41:24;;;;;;;3.00;1.67;;;;;19.70;99035.00;;;;2088013;28;20213;-65
2021/03/14 00:42:24;;;;;;;2.63;1.90;;;;;19.60;99042.00;;;;2081631;28;20221;-65
2021/03/14 00:43:24;;;;;;;2.77;1.73;;;;;19.60;99051.00;;;;2088085;28;20638;-68
2021/03/14 00:44:25;;;;;;;2.77;1.60;;;;;19.60;99054.00;;;;2088963;28;20278;-66
2021/03/14 00:45:25;;;;;;;2.63;1.73;;;;;19.60;99051.00;;;;2088969;28;20213;-65
2021/03/14 00:46:28;;;;;;;1.90;1.70;;;;;19.60;99058.00;;;;2088303;28;20217;-65
2021/03/14 00:47:29;;;;;;;2.03;1.60;;;;;19.60;99051.00;;;;2087908;28;20600;-65
2021/03/14 00:48:29;;;;;;;4.03;2.07;;;;;19.60;99062.00;;;;2088827;28;20221;-65
2021/03/14 00:49:29;;;;;;;2.70;1.70;;;;;19.60;99058.00;;;;2088888;28;20765;-65
2021/03/14 00:50:36;;;;;;;1.80;1.60;;;;;19.60;99062.00;;;;2088525;28;20576;-65
2021/03/14 00:51:37;;;;;;;1.80;1.58;;;;;19.60;99053.00;;;;2080091;28;20214;-65
2021/03/14 00:52:37;;;;;;;3.80;2.13;;;;;19.60;99063.00;;;;2079991;28;20206;-65
2021/03/14 00:53:37;;;;;;;2.57;1.83;;;;;19.60;99068.00;;;;2088788;28;20214;-64
2021/03/14 00:54:39;;;;;;;2.23;1.50;;;;;19.60;99066.00;;;;2089013;28;20236;-65
2021/03/14 00:55:39;;;;;;;2.30;1.55;;;;;19.60;99074.00;;;;2088608;28;20212;-65
2021/03/14 00:56:40;;;;;;;2.43;1.70;;;;;19.50;99069.00;;;;2088267;28;20588;-64
2021/03/14 00:57:40;;;;;;;2.43;1.80;;;;;19.60;99063.00;;;;2080170;28;20759;-64
2021/03/14 00:58:41;;;;;;;2.47;1.80;;;;;19.60;99070.00;;;;2080172;28;20268;-65
2021/03/14 00:59:41;;;;;;;2.53;1.60;;;;;19.50;99073.00;;;;2088663;28;20291;-64
2021/03/14 01:00:41;;;;;;;3.20;1.60;;;;;19.50;99073.00;;;;2088897;28;20232;-64
2021/03/14 01:01:42;;;;;;;2.20;1.57;;;;;19.50;99079.00;;;;2088945;28;20773;-64
2021/03/14 01:02:42;;;;;;;2.50;1.47;;;;;19.50;99080.00;;;;2088793;28;20286;-65
2021/03/14 01:03:42;;;;;;;1.97;1.40;;;;;19.50;99081.00;;;;2089027;28;20217;-65
2021/03/14 01:04:43;;;;;;;2.23;1.20;;;;;19.50;99087.00;;;;2088925;28;20219;-65
2021/03/14 01:05:43;;;;;;;2.23;1.60;;;;;19.50;99086.00;;;;2088806;28;20213;-65
2021/03/14 01:06:44;;;;;;;2.80;1.40;;;;;19.50;99087.00;;;;2079509;28;20226;-65
2021/03/14 01:07:44;;;;;;;2.40;1.60;;;;;19.50;99078.00;;;;2080121;28;20233;-65
2021/03/14 01:08:45;;;;;;;3.20;1.70;;;;;19.50;99088.00;;;;2079930;28;20226;-65
2021/03/14 01:09:45;;;;;;;2.37;1.73;;;;;19.50;99091.00;;;;2080050;28;20210;-65
2021/03/14 01:10:46;;;;;;;1.80;1.30;;;;;19.50;99083.00;;;;2079712;28;20220;-65
2021/03/14 01:11:46;;;;;;;3.17;2.00;;;;;19.50;99092.00;;;;2075809;28;20206;-65
2021/03/14 01:12:46;;;;;;;4.60;1.80;;;;;19.50;99090.00;;;;2067328;28;20206;-64
2021/03/14 01:13:47;;;;;;;3.27;1.67;;;;;19.50;99096.00;;;;2088811;28;20205;-64
2021/03/14 01:14:47;;;;;;;2.80;1.70;;;;;19.50;99090.00;;;;2088682;28;20213;-64
2021/03/14 01:15:47;;;;;;;4.33;1.83;;;;;19.40;99093.00;;;;2088161;28;20226;-64
2021/03/14 01:16:48;;;;;;;3.13;2.00;;;;;19.50;99091.00;;;;2086934;28;20883;-64
2021/03/14 01:17:48;;;;;;;1.87;1.53;;;;;19.50;99100.00;;;;2071784;28;20624;-65
2021/03/14 01:18:48;;;;;;;2.17;1.40;;;;;19.40;99095.00;;;;2063669;28;20246;-65
2021/03/14 01:19:49;;;;;;;3.23;1.73;;;;;19.40;99107.00;;;;2079728;28;21671;-65
2021/03/14 01:20:49;;;;;;;2.60;1.67;;;;;19.40;99101.00;;;;2088714;28;20217;-64
2021/03/14 01:21:49;;;;;;;2.93;1.57;;;;;19.40;99105.00;;;;2087926;28;20674;-65
2021/03/14 01:22:50;;;;;;;2.47;1.67;;;;;19.40;99102.00;;;;2071374;28;20225;-64
2021/03/14 01:23:50;;;;;;;2.83;1.53;;;;;19.40;99097.00;;;;2071850;28;20230;-65
2021/03/14 01:24:51;;;;;;;2.93;1.40;;;;;19.40;99109.00;;;;2088696;28;20690;-65
2021/03/14 01:25:51;;;;;;;2.47;1.37;;;;;19.40;99109.00;;;;2088774;28;20265;-64
2021/03/14 01:26:51;;;;;;;2.20;1.73;;;;;19.40;99109.00;;;;2088201;28;20247;-64
2021/03/14 01:27:52;;;;;;;3.00;1.57;;;;;19.40;99112.00;;;;2088399;28;20258;-64
2021/03/14 01:28:52;;;;;;;2.23;1.63;;;;;19.40;99111.00;;;;2087922;28;20216;-65
2021/03/14 01:29:52;;;;;;;2.10;1.77;;;;;19.40;99102.00;;;;2087839;28;20684;-65
2021/03/14 01:30:53;;;;;;;3.10;2.07;;;;;19.40;99101.00;;;;2088552;28;20638;-65
2021/03/14 01:31:53;;;;;;;2.63;1.30;;;;;19.40;99108.00;;;;2088616;28;20880;-64
2021/03/14 01:32:54;;;;;;;2.70;1.60;;;;;19.40;99111.00;;;;2088560;28;20245;-65
2021/03/14 01:33:54;;;;;;;2.73;1.37;;;;;19.40;99106.00;;;;2088621;28;20227;-64
2021/03/14 01:34:54;;;;;;;2.60;1.57;;;;;19.40;99114.00;;;;2088524;28;20213;-65
2021/03/14 01:35:54;;;;;;;2.50;1.70;;;;;19.30;99115.00;;;;2088415;28;20278;-64
2021/03/14 01:36:55;;;;;;;1.57;1.40;;;;;19.40;99110.00;;;;2088096;28;20223;-64
2021/03/14 01:37:55;;;;;;;3.47;1.80;;;;;19.30;99116.00;;;;2088623;28;20299;-65
2021/03/14 01:38:55;;;;;;;3.27;1.50;;;;;19.40;99118.00;;;;2088568;28;20217;-65
2021/03/14 01:39:56;;;;;;;3.80;1.57;;;;;19.40;99114.00;;;;2088676;28;20227;-64
2021/03/14 01:40:56;;;;;;;2.37;1.40;;;;;19.30;99122.00;;;;2086996;28;20782;-64
2021/03/14 01:41:56;;;;;;;3.60;2.00;;;;;19.30;99121.00;;;;2078312;28;20920;-64
2021/03/14 01:42:57;;;;;;;2.50;1.73;;;;;19.30;99128.00;;;;2085792;28;20678;-65
2021/03/14 01:43:58;;;;;;;4.27;1.83;;;;;19.30;99121.00;;;;2087921;28;20216;-65
2021/03/14 01:44:59;;;;;;;2.75;1.40;;;;;19.30;99120.00;;;;2079376;28;20244;-64
2021/03/14 01:45:59;;;;;;;2.17;1.50;;;;;19.30;99125.00;;;;2079874;28;20248;-65
2021/03/14 01:47:00;;;;;;;2.50;1.60;;;;;19.30;99127.00;;;;2078641;28;20251;-65
2021/03/14 01:48:01;;;;;;;2.80;1.80;;;;;19.30;99129.00;;;;2079617;28;20217;-65
2021/03/14 01:49:02;;;;;;;2.90;1.73;;;;;19.30;99122.00;;;;2071472;28;20264;-65
2021/03/14 01:50:30;;;;;;;3.10;1.52;;;;;19.30;99131.00;;;;2063584;28;20210;-63
2021/03/14 01:51:31;;;;;;;3.13;1.80;;;;;19.30;99126.00;;;;2080951;28;20217;-64
2021/03/14 01:52:32;;;;;;;2.60;1.35;;;;;19.30;99127.00;;;;2087837;28;20602;-65
2021/03/14 01:53:33;;;;;;;2.03;1.60;;;;;19.30;99129.00;;;;2079517;28;20312;-65
2021/03/14 01:54:33;;;;;;;4.07;2.00;;;;;19.30;99130.00;;;;2079931;28;20231;-64
2021/03/14 01:55:33;;;;;;;2.67;1.73;;;;;19.30;99130.00;;;;2070847;28;20236;-64
2021/03/14 01:56:34;;;;;;;1.87;1.37;;;;;19.30;99139.00;;;;2068519;28;20257;-65
2021/03/14 01:57:35;;;;;;;2.63;1.70;;;;;19.30;99133.00;;;;2079554;28;20228;-64
2021/03/14 01:58:35;;;;;;;2.20;1.27;;;;;19.30;99137.00;;;;2071281;28;20873;-66
2021/03/14 01:59:36;;;;;;;3.50;1.60;;;;;19.30;99137.00;;;;2079426;28;20244;-66
2021/03/14 02:00:36;;;;;;;2.70;1.60;;;;;19.20;99132.00;;;;2079503;28;20210;-65
2021/03/14 02:01:36;;;;;;;4.23;2.00;;;;;19.20;99124.00;;;;2071564;28;20215;-65
2021/03/14 02:02:37;;;;;;;1.47;1.30;;;;;19.20;99136.00;;;;2079537;28;20217;-65
2021/03/14 02:03:37;;;;;;;3.00;1.90;;;;;19.20;99147.00;;;;2079303;28;20245;-65
2021/03/14 02:04:37;;;;;;;3.07;1.60;;;;;19.20;99136.00;;;;2079664;28;20222;-65
2021/03/14 02:05:38;;;;;;;3.00;1.83;;;;;19.20;99140.00;;;;2085716;28;20236;-66
2021/03/14 02:06:38;;;;;;;3.40;1.47;;;;;19.20;99134.00;;;;2087532;28;20290;-65
2021/03/14 02:07:41;;;;;;;2.67;1.40;;;;;19.20;99136.00;;;;2087742;28;20224;-65
2021/03/14 02:08:41;;;;;;;3.40;1.60;;;;;19.20;99120.00;;;;2087838;28;20711;-65
2021/03/14 02:09:41;;;;;;;4.30;1.83;;;;;19.20;99133.00;;;;2079261;28;20222;-65
2021/03/14 02:10:42;;;;;;;2.77;1.87;;;;;19.20;99132.00;;;;2066185;28;20267;-65
2021/03/14 02:11:42;;;;;;;2.80;1.57;;;;;19.20;99132.00;;;;2070864;28;20210;-65
2021/03/14 02:12:57;;;;;;;3.00;1.87;;;;;19.20;99145.00;;;;2067418;28;20222;-64
2021/03/14 02:13:57;;;;;;;2.42;1.60;;;;;19.10;99150.00;;;;2063124;28;20226;-64
2021/03/14 02:14:58;;;;;;;3.13;1.57;;;;;19.20;99143.00;;;;2055252;28;20732;-64
2021/03/14 02:16:15;;;;;;;4.20;2.07;;;;;19.20;99157.00;;;;2070508;28;20400;-65
2021/03/14 02:17:16;;;;;;;2.75;1.50;;;;;19.10;99149.00;;;;2075934;28;20508;-65
2021/03/14 02:18:17;;;;;;;3.72;2.15;;;;;19.20;99159.00;;;;2063378;28;20298;-65
2021/03/14 02:19:24;;;;;;;2.90;1.77;;;;;19.10;99148.00;;;;2062634;28;20211;-64
2021/03/14 02:20:27;;;;;;;2.58;1.60;;;;;19.20;99165.00;;;;2071042;28;20216;-64
2021/03/14 02:21:30;;;;;;;2.75;1.85;;;;;19.10;99167.00;;;;2067337;28;20215;-64
2021/03/14 02:22:31;;;;;;;3.78;1.88;;;;;19.10;99163.00;;;;2070098;28;20229;-65
2021/03/14 02:23:34;;;;;;;3.37;1.63;;;;;19.10;99168.00;;;;2054593;28;20571;-64
2021/03/14 02:24:48;;;;;;;4.03;2.17;;;;;19.10;99157.00;;;;2063130;28;20226;-64
2021/03/14 02:25:50;;;;;;;2.78;1.80;;;;;19.10;99158.00;;;;2055525;28;21123;-65
2021/03/14 02:27:01;;;;;;;2.92;2.00;;;;;19.10;99164.00;;;;2053708;28;20233;-64
2021/03/14 02:28:02;;;;;;;3.38;1.85;;;;;19.10;99161.00;;;;2072539;28;20280;-64
2021/03/14 02:29:03;;;;;;;2.92;1.75;;;;;19.10;99153.00;;;;2071104;28;20214;-64
2021/03/14 02:30:04;;;;;;;3.13;1.83;;;;;19.10;99163.00;;;;2070952;28;20939;-65
2021/03/14 02:31:05;;;;;;;3.65;2.22;;;;;19.10;99161.00;;;;2068664;28;20225;-65
2021/03/14 02:32:06;;;;;;;3.00;1.92;;;;;19.10;99166.00;;;;2070717;28;20225;-64
2021/03/14 02:33:06;;;;;;;2.83;1.55;;;;;19.10;99153.00;;;;2070262;28;20228;-64
2021/03/14 02:34:09;;;;;;;4.13;2.17;;;;;19.10;99162.00;;;;2062413;28;20834;-64
2021/03/14 02:35:10;;;;;;;2.03;1.63;;;;;19.10;99171.00;;;;2070854;28;20225;-64
2021/03/14 02:36:11;;;;;;;3.50;1.80;;;;;19.10;99178.00;;;;2068092;28;20250;-64
2021/03/14 02:37:11;;;;;;;4.53;1.83;;;;;19.10;99162.00;;;;2069832;28;20613;-64
2021/03/14 02:38:13;;;;;;;2.30;1.60;;;;;19.10;99170.00;;;;2071167;28;20480;-64
2021/03/14 02:39:14;;;;;;;2.55;1.67;;;;;19.10;99172.00;;;;2062817;28;20332;-65
2021/03/14 02:40:15;;;;;;;2.72;1.83;;;;;19.00;99170.00;;;;2063930;28;20293;-65
2021/03/14 02:41:15;;;;;;;3.90;2.10;;;;;19.00;99165.00;;;;2070653;28;20214;-65
2021/03/14 02:42:16;;;;;;;3.30;1.73;;;;;19.00;99175.00;;;;2078629;28;20584;-65
2021/03/14 02:43:16;;;;;;;2.00;1.60;;;;;18.90;99176.00;;;;2070666;28;20289;-65
2021/03/14 02:44:17;;;;;;;2.20;1.80;;;;;19.00;99174.00;;;;2062485;28;20256;-64
2021/03/14 02:45:17;;;;;;;2.20;1.70;;;;;19.00;99183.00;;;;2070191;28;20697;-64
2021/03/14 02:46:18;;;;;;;2.03;1.63;;;;;19.00;99174.00;;;;2059910;28;20305;-64
2021/03/14 02:47:21;;;;;;;3.87;2.23;;;;;19.00;99179.00;;;;2062150;28;20221;-65
2021/03/14 02:48:22;;;;;;;2.03;1.65;;;;;19.00;99184.00;;;;2070791;28;20275;-64
2021/03/14 02:49:22;;;;;;;2.30;2.07;;;;;19.00;99182.00;;;;2078418;28;20241;-64
2021/03/14 02:50:23;;;;;;;4.20;1.83;;;;;19.00;99181.00;;;;2078969;28;20217;-65
2021/03/14 02:51:23;;;;;;;2.70;1.90;;;;;19.00;99187.00;;;;2078678;28;20716;-64
2021/03/14 02:52:24;;;;;;;3.70;2.27;;;;;19.00;99187.00;;;;2070252;28;20590;-64
2021/03/14 02:53:24;;;;;;;2.67;1.90;;;;;19.00;99183.00;;;;2070547;28;20264;-65
2021/03/14 02:54:24;;;;;;;3.87;2.40;;;;;19.00;99189.00;;;;2070594;28;20218;-65
2021/03/14 02:55:25;;;;;;;3.87;1.90;;;;;19.00;99192.00;;;;2070441;28;20278;-64
2021/03/14 02:56:25;;;;;;;3.40;2.17;;;;;19.00;99191.00;;;;2060389;28;20302;-64
2021/03/14 02:57:25;;;;;;;3.43;1.77;;;;;19.00;99194.00;;;;2060719;28;20216;-65
2021/03/14 02:58:26;;;;;;;2.83;1.93;;;;;19.00;99200.00;;;;2070436;28;20264;-64
2021/03/14 02:59:26;;;;;;;2.40;1.57;;;;;19.00;99203.00;;;;2070371;28;20681;-63
2021/03/14 03:00:27;;;;;;;4.33;2.13;;;;;19.00;99197.00;;;;2078502;28;20719;-64
2021/03/14 03:01:29;;;;;;;3.30;2.10;;;;;19.00;99206.00;;;;2077943;28;20220;-64
2021/03/14 03:02:29;;;;;;;5.07;1.95;;;;;19.00;99208.00;;;;2078483;28;20546;-64
2021/03/14 03:03:29;;;;;;;2.43;2.10;;;;;19.00;99208.00;;;;2062516;28;20222;-64
2021/03/14 03:04:30;;;;;;;4.93;2.40;;;;;19.00;99203.00;;;;2053393;28;20271;-64
2021/03/14 03:05:30;;;;;;;4.03;2.00;;;;;18.90;99200.00;;;;2070064;28;20249;-64
2021/03/14 03:06:31;;;;;;;3.30;2.30;;;;;18.90;99204.00;;;;2068083;28;20225;-64
2021/03/14 03:07:31;;;;;;;2.87;1.77;;;;;18.90;99213.00;;;;2052876;28;20306;-64
2021/03/14 03:08:32;;;;;;;2.80;1.63;;;;;18.90;99219.00;;;;2070273;28;20231;-64
2021/03/14 03:09:32;;;;;;;3.37;2.13;;;;;18.90;99216.00;;;;2062424;28;20251;-64
2021/03/14 03:10:39;;;;;;;3.53;2.00;;;;;18.90;99218.00;;;;2060875;28;20424;-64
2021/03/14 03:11:39;;;;;;;3.60;2.28;;;;;18.90;99219.00;;;;2068033;28;20232;-63
2021/03/14 03:12:39;;;;;;;3.97;2.10;;;;;18.90;99226.00;;;;2073363;28;20716;-64
2021/03/14 03:13:40;;;;;;;3.00;2.10;;;;;18.90;99220.00;;;;2086544;28;20251;-64
2021/03/14 03:14:40;;;;;;;2.13;1.73;;;;;18.90;99228.00;;;;2086587;28;20227;-64
2021/03/14 03:15:41;;;;;;;4.97;2.37;;;;;18.90;99233.00;;;;2070149;28;20236;-65
2021/03/14 03:16:41;;;;;;;4.50;2.10;;;;;18.90;99223.00;;;;2059489;28;20223;-64
2021/03/14 03:17:42;;;;;;;3.63;1.80;;;;;18.90;99221.00;;;;2086764;28;20216;-65
2021/03/14 03:18:42;;;;;;;3.90;2.00;;;;;18.90;99233.00;;;;2079111;28;20754;-64
2021/03/14 03:19:43;;;;;;;5.40;2.33;;;;;18.90;99239.00;;;;2070899;28;20967;-64
2021/03/14 03:20:43;;;;;;;2.10;1.70;;;;;18.90;99227.00;;;;2079041;28;20221;-64
2021/03/14 03:21:43;;;;;;;3.03;2.07;;;;;18.90;99238.00;;;;2067359;28;20217;-64
2021/03/14 03:22:44;;;;;;;2.87;2.03;;;;;18.90;99230.00;;;;2079052;28;20225;-64
2021/03/14 03:23:44;;;;;;;4.00;2.40;;;;;18.90;99239.00;;;;2078778;28;20220;-63
2021/03/14 03:24:44;;;;;;;3.90;2.30;;;;;18.80;99236.00;;;;2078902;28;20807;-64
2021/03/14 03:25:45;;;;;;;3.00;2.10;;;;;18.90;99240.00;;;;2070852;28;21539;-64
2021/03/14 03:26:46;;;;;;;3.23;1.77;;;;;18.90;99243.00;;;;2077247;28;20731;-64
2021/03/14 03:27:47;;;;;;;4.65;1.75;;;;;18.90;99248.00;;;;2087233;28;20222;-64
2021/03/14 03:28:48;;;;;;;3.97;1.93;;;;;18.80;99252.00;;;;2078750;28;20239;-64
2021/03/14 03:29:50;;;;;;;3.10;1.92;;;;;18.80;99270.00;;;;2070304;28;20693;-64
2021/03/14 03:30:51;;;;;;;5.43;2.20;;;;;18.80;99248.00;;;;2079189;28;20223;-64
2021/03/14 03:31:51;;;;;;;3.77;1.87;;;;;18.80;99254.00;;;;2087570;28;20366;-64
2021/03/14 03:32:51;;;;;;;2.80;2.00;;;;;18.80;99241.00;;;;2087710;28;20294;-64
2021/03/14 03:33:52;;;;;;;2.80;1.80;;;;;18.80;99245.00;;;;2087235;28;20212;-64
2021/03/14 03:34:52;;;;;;;4.23;2.03;;;;;18.80;99248.00;;;;2087503;28;20549;-64
2021/03/14 03:35:53;;;;;;;3.50;1.90;;;;;18.80;99249.00;;;;2077767;28;20548;-68
2021/03/14 03:36:53;;;;;;;4.17;2.20;;;;;18.80;99251.00;;;;2077982;28;21200;-65
2021/03/14 03:37:54;;;;;;;3.43;2.03;;;;;18.80;99256.00;;;;2078446;28;20217;-65
2021/03/14 03:38:54;;;;;;;4.23;2.13;;;;;18.80;99255.00;;;;2087209;28;20221;-64
2021/03/14 03:39:55;;;;;;;3.63;2.00;;;;;18.80;99265.00;;;;2078128;28;20213;-65
2021/03/14 03:40:55;;;;;;;4.13;2.00;;;;;18.80;99261.00;;;;2077269;28;20216;-65
2021/03/14 03:42:00;;;;;;;2.73;1.90;;;;;18.80;99260.00;;;;2081799;28;20725;-66
2021/03/14 03:43:10;;;;;;;2.78;1.73;;;;;18.80;99257.00;;;;2076091;28;20592;-65
2021/03/14 03:44:10;;;;;;;4.18;2.10;;;;;18.80;99267.00;;;;2079785;28;20224;-64
2021/03/14 03:45:11;;;;;;;3.13;1.90;;;;;18.80;99255.00;;;;2078684;28;20209;-65
2021/03/14 03:46:13;;;;;;;4.33;1.80;;;;;18.80;99262.00;;;;2062517;28;20215;-65
2021/03/14 03:47:14;;;;;;;2.50;1.75;;;;;18.80;99270.00;;;;2062191;28;20450;-65
2021/03/14 03:48:19;;;;;;;3.75;2.08;;;;;18.80;99275.00;;;;2062202;28;20219;-65
2021/03/14 03:49:22;;;;;;;3.58;2.20;;;;;18.80;99280.00;;;;2070636;28;20213;-65
2021/03/14 03:50:22;;;;;;;4.10;1.75;;;;;18.80;99263.00;;;;2071503;28;20222;-65
2021/03/14 03:51:24;;;;;;;2.73;1.70;;;;;18.80;99273.00;;;;2086529;28;20208;-65
2021/03/14 03:52:24;;;;;;;3.22;2.15;;;;;18.80;99276.00;;;;2078513;28;20227;-64
2021/03/14 03:53:25;;;;;;;3.33;1.90;;;;;18.80;99272.00;;;;2078695;28;20315;-64
2021/03/14 03:54:26;;;;;;;3.90;2.00;;;;;18.70;99271.00;;;;2070348;28;20211;-66
2021/03/14 03:55:26;;;;;;;2.70;1.80;;;;;18.80;99281.00;;;;2062736;28;20268;-66
2021/03/14 03:56:27;;;;;;;5.67;2.30;;;;;18.80;99268.00;;;;2062196;28;20517;-66
2021/03/14 03:57:27;;;;;;;4.07;2.03;;;;;18.70;99275.00;;;;2070041;28;20249;-65
2021/03/14 03:58:29;;;;;;;3.10;2.00;;;;;18.70;99281.00;;;;2062553;28;20214;-65
2021/03/14 03:59:30;;;;;;;2.80;1.90;;;;;18.70;99289.00;;;;2062927;28;20210;-65
2021/03/14 04:00:30;;;;;;;2.37;1.80;;;;;18.80;99286.00;;;;2062408;28;20673;-64
2021/03/14 04:01:31;;;;;;;3.17;1.80;;;;;18.70;99292.00;;;;2054554;28;20761;-65
2021/03/14 04:02:31;;;;;;;4.40;2.70;;;;;18.70;99293.00;;;;2070490;28;20292;-64
2021/03/14 04:03:31;;;;;;;4.40;2.30;;;;;18.70;99291.00;;;;2078492;28;20287;-65
2021/03/14 04:04:33;;;;;;;5.70;1.90;;;;;18.70;99295.00;;;;2062341;28;20215;-65
2021/03/14 04:05:33;;;;;;;3.75;2.30;;;;;18.70;99306.00;;;;2054505;28;20222;-65
2021/03/14 04:06:33;;;;;;;3.00;1.73;;;;;18.70;99258.00;;;;2062362;28;20249;-65
2021/03/14 04:07:37;;;;;;;2.97;1.70;;;;;18.70;99295.00;;;;2070794;28;20216;-65
2021/03/14 04:08:38;;;;;;;3.55;1.65;;;;;18.70;99307.00;;;;2072167;28;20230;-65
2021/03/14 04:09:38;;;;;;;3.27;2.07;;;;;18.70;99305.00;;;;2055902;28;20249;-65
2021/03/14 04:10:38;;;;;;;3.00;1.90;;;;;18.70;99313.00;;;;2055748;28;20277;-65
2021/03/14 04:11:39;;;;;;;2.73;1.87;;;;;18.70;99313.00;;;;2051057;28;20775;-65
2021/03/14 04:12:41;;;;;;;2.22;1.80;;;;;18.70;99307.00;;;;2064017;28;20234;-65
2021/03/14 04:13:42;;;;;;;3.55;2.03;;;;;18.70;99314.00;;;;2064298;28;20222;-65
2021/03/14 04:14:42;;;;;;;3.40;2.17;;;;;18.70;99324.00;;;;2063790;28;20218;-65
2021/03/14 04:15:43;;;;;;;2.30;1.87;;;;;18.70;99324.00;;;;2064160;28;20462;-65
2021/03/14 04:16:43;;;;;;;4.70;1.67;;;;;18.70;99320.00;;;;2071505;28;20307;-65
2021/03/14 04:17:43;;;;;;;3.67;2.13;;;;;18.70;99325.00;;;;2072321;28;20214;-65
2021/03/14 04:18:44;;;;;;;2.93;1.50;;;;;18.70;99327.00;;;;2072052;28;20202;-65
2021/03/14 04:19:44;;;;;;;2.70;1.70;;;;;18.70;99335.00;;;;2072218;28;20795;-65
2021/03/14 04:20:44;;;;;;;3.23;1.90;;;;;18.70;99330.00;;;;2055988;28;20406;-65
2021/03/14 04:21:45;;;;;;;2.07;1.43;;;;;18.70;99327.00;;;;2072223;28;20221;-64
2021/03/14 04:22:47;;;;;;;2.60;1.60;;;;;18.70;99325.00;;;;2064093;28;20717;-65
2021/03/14 04:23:50;;;;;;;4.07;2.15;;;;;18.70;99332.00;;;;2055441;28;20326;-65
2021/03/14 04:24:50;;;;;;;3.13;1.85;;;;;18.70;99327.00;;;;2064305;28;20221;-65
2021/03/14 04:25:54;;;;;;;2.67;2.00;;;;;18.60;99340.00;;;;2080488;28;20220;-65
2021/03/14 04:26:54;;;;;;;3.63;2.10;;;;;18.60;99333.00;;;;2070976;28;20225;-65
2021/03/14 04:27:55;;;;;;;3.93;2.20;;;;;18.60;99334.00;;;;2056458;28;20651;-65
2021/03/14 04:28:56;;;;;;;2.47;1.77;;;;;18.60;99330.00;;;;2063872;28;20253;-64
2021/03/14 04:29:56;;;;;;;2.13;1.60;;;;;18.60;99339.00;;;;2071691;28;20807;-65
2021/03/14 04:30:57;;;;;;;4.67;2.20;;;;;18.60;99342.00;;;;2070286;28;20280;-65
2021/03/14 04:31:57;;;;;;;3.97;2.00;;;;;18.60;99338.00;;;;2064113;28;20733;-64
2021/03/14 04:32:57;;;;;;;2.13;1.67;;;;;18.60;99349.00;;;;2063934;28;20222;-65
2021/03/14 04:33:58;;;;;;;3.23;1.80;;;;;18.60;99341.00;;;;2072110;28;20360;-65
2021/03/14 04:34:58;;;;;;;3.43;1.47;;;;;18.60;99335.00;;;;2080119;28;20217;-65
2021/03/14 04:35:59;;;;;;;2.90;1.73;;;;;18.60;99351.00;;;;2064128;28;20235;-65
2021/03/14 04:36:59;;;;;;;2.43;1.67;;;;;18.60;99335.00;;;;2071512;28;20861;-65
2021/03/14 04:38:00;;;;;;;2.23;1.40;;;;;18.60;99349.00;;;;2072123;28;20216;-65
2021/03/14 04:39:00;;;;;;;2.70;1.93;;;;;18.60;99355.00;;;;2071991;28;20219;-65
2021/03/14 04:40:01;;;;;;;2.37;1.60;;;;;18.60;99352.00;;;;2080246;28;20614;-64
2021/03/14 04:41:01;;;;;;;3.80;2.10;;;;;18.60;99352.00;;;;2078769;28;20214;-67
2021/03/14 04:42:01;;;;;;;3.63;2.00;;;;;18.60;99350.00;;;;2065818;28;20283;-66
2021/03/14 04:43:02;;;;;;;2.33;1.47;;;;;18.60;99357.00;;;;2078010;28;20600;-65
2021/03/14 04:44:03;;;;;;;4.50;1.90;;;;;18.60;99351.00;;;;2080117;28;20699;-66
2021/03/14 04:45:05;;;;;;;4.38;2.00;;;;;18.60;99357.00;;;;2080037;28;20464;-65
2021/03/14 04:46:05;;;;;;;3.80;2.13;;;;;18.60;99354.00;;;;2080166;28;20595;-65
2021/03/14 04:47:05;;;;;;;3.17;2.17;;;;;18.60;99353.00;;;;2088289;28;20216;-64
2021/03/14 04:48:06;;;;;;;4.53;2.17;;;;;18.60;99357.00;;;;2080095;28;20646;-66
2021/03/14 04:49:06;;;;;;;2.60;1.80;;;;;18.60;99359.00;;;;2079858;28;20308;-65
2021/03/14 04:50:09;;;;;;;4.33;1.87;;;;;18.60;99360.00;;;;2089105;28;20218;-66
2021/03/14 04:51:09;;;;;;;4.15;2.10;;;;;18.60;99361.00;;;;2088293;28;20697;-64
2021/03/14 04:52:10;;;;;;;4.03;1.83;;;;;18.60;99347.00;;;;2088491;28;20214;-65
2021/03/14 04:53:10;;;;;;;3.53;1.93;;;;;18.60;99349.00;;;;2080087;28;20207;-65
2021/03/14 04:54:11;;;;;;;3.63;2.30;;;;;18.50;99360.00;;;;2063749;28;20215;-65
2021/03/14 04:55:13;;;;;;;5.68;2.10;;;;;18.50;99367.00;;;;2071442;28;20309;-64
2021/03/14 04:56:13;;;;;;;4.45;2.05;;;;;18.50;99365.00;;;;2088936;28;20575;-65
2021/03/14 04:57:16;;;;;;;1.90;1.70;;;;;18.50;99363.00;;;;2088415;28;20242;-65
2021/03/14 04:58:17;;;;;;;2.67;1.77;;;;;18.50;99367.00;;;;2088324;28;20309;-65
2021/03/14 04:59:17;;;;;;;3.75;1.75;;;;;18.50;99367.00;;;;2088091;28;20219;-65
2021/03/14 05:00:19;;;;;;;4.03;1.90;;;;;18.50;99382.00;;;;2087844;28;20218;-65
2021/03/14 05:01:19;;;;;;;5.50;2.10;;;;;18.50;99377.00;;;;2080107;28;20302;-65
2021/03/14 05:02:20;;;;;;;3.47;1.73;;;;;18.50;99371.00;;;;2079816;28;20732;-65
2021/03/14 05:03:21;;;;;;;3.10;1.80;;;;;18.50;99381.00;;;;2079970;28;20216;-65
2021/03/14 05:04:21;;;;;;;3.58;1.80;;;;;18.50;99380.00;;;;2071864;28;20213;-65
2021/03/14 05:05:22;;;;;;;3.50;2.20;;;;;18.50;99380.00;;;;2071879;28;20210;-65
2021/03/14 05:06:22;;;;;;;3.83;2.03;;;;;18.50;99385.00;;;;2063811;28;20220;-65